Time;durP1;ratioP1;P1;durP2;ratioP2;P2;SDS_P1;SDS_P2;PMS_P1;PMS_P2;Temp;Humidity;BMP_temperature;BMP_pressure;BME280_temperature;BME280_humidity;BME280_pressure;Samples;Min_cycle;Max_cycle;Signal;HPM_P1;HPM_P2
2022/05/08 00:02:18;;;;;;;11.48;10.38;;;12.20;99.90;;;;;;4935527;29;20028;-80
2022/05/08 00:04:45;;;;;;;10.80;9.75;;;12.20;99.90;;;;;;4935537;29;20031;-79
2022/05/08 00:07:10;;;;;;;11.27;10.05;;;12.20;99.90;;;;;;4936809;29;20118;-78
2022/05/08 00:09:36;;;;;;;12.73;11.43;;;12.20;99.90;;;;;;4937823;29;20063;-77
2022/05/08 00:12:01;;;;;;;13.30;10.75;;;12.20;99.90;;;;;;4937244;29;20043;-77
2022/05/08 00:14:27;;;;;;;11.00;9.93;;;12.30;99.90;;;;;;4937546;29;20046;-79
2022/05/08 00:16:52;;;;;;;11.38;10.15;;;12.40;99.90;;;;;;4934747;29;20027;-77
2022/05/08 00:19:18;;;;;;;24.20;10.90;;;12.40;99.90;;;;;;4932860;29;20404;-76
2022/05/08 00:21:44;;;;;;;12.93;11.13;;;12.30;99.90;;;;;;4934781;29;20023;-78
2022/05/08 00:24:09;;;;;;;11.27;9.98;;;12.40;99.90;;;;;;4935435;29;20028;-77
2022/05/08 00:26:35;;;;;;;11.00;9.95;;;12.40;99.90;;;;;;4936269;29;20023;-76
2022/05/08 00:29:00;;;;;;;14.65;11.15;;;12.50;99.90;;;;;;4932114;29;20123;-77
2022/05/08 00:31:26;;;;;;;11.35;10.32;;;12.40;99.90;;;;;;4941425;29;20437;-77
2022/05/08 00:33:52;;;;;;;11.77;10.73;;;12.20;99.90;;;;;;4932934;29;20552;-76
2022/05/08 00:36:18;;;;;;;12.13;11.02;;;12.00;99.90;;;;;;4933316;29;20036;-77
2022/05/08 00:38:44;;;;;;;13.27;10.90;;;11.90;99.90;;;;;;4933235;29;20032;-77
2022/05/08 00:41:10;;;;;;;12.65;11.45;;;11.80;99.90;;;;;;4933976;29;20038;-77
2022/05/08 00:43:38;;;;;;;14.27;11.88;;;11.80;99.90;;;;;;4929086;29;20023;-77
2022/05/08 00:46:14;;;;;;;12.95;11.75;;;11.80;99.90;;;;;;4933379;29;20503;-77
2022/05/08 00:48:41;;;;;;;16.02;13.15;;;11.90;99.90;;;;;;4932054;29;20042;-77
2022/05/08 00:51:11;;;;;;;13.40;12.10;;;11.90;99.90;;;;;;4935358;29;20016;-77
2022/05/08 00:53:40;;;;;;;12.27;10.98;;;11.80;99.90;;;;;;4939014;29;20066;-77
2022/05/08 00:56:08;;;;;;;12.07;10.93;;;11.80;99.90;;;;;;4936734;28;20043;-77
2022/05/08 00:58:35;;;;;;;15.30;13.18;;;11.80;99.90;;;;;;4938260;29;20027;-77
2022/05/08 01:01:02;;;;;;;14.57;13.00;;;11.70;99.90;;;;;;4939585;28;20024;-77
2022/05/08 01:03:27;;;;;;;14.65;12.90;;;11.70;99.90;;;;;;4933791;29;20035;-76
2022/05/08 01:05:54;;;;;;;14.65;13.10;;;11.60;99.90;;;;;;4941265;29;20036;-77
2022/05/08 01:08:21;;;;;;;14.55;13.00;;;11.60;99.90;;;;;;4934625;29;20496;-77
2022/05/08 01:10:47;;;;;;;13.75;12.45;;;11.70;99.90;;;;;;4934740;29;20040;-76
2022/05/08 01:13:13;;;;;;;13.77;12.57;;;11.90;99.90;;;;;;4932612;29;20032;-76
2022/05/08 01:15:46;;;;;;;14.90;13.32;;;11.80;99.90;;;;;;4932565;29;20044;-76
2022/05/08 01:18:13;;;;;;;17.33;13.27;;;11.70;99.90;;;;;;4931176;29;20055;-77
2022/05/08 01:20:41;;;;;;;17.15;13.23;;;11.60;99.90;;;;;;4936607;29;20091;-77
2022/05/08 01:23:07;;;;;;;15.27;13.70;;;11.50;99.90;;;;;;4938621;29;20095;-76
2022/05/08 01:25:48;;;;;;;14.25;12.93;;;11.40;99.90;;;;;;4938668;29;20484;-77
2022/05/08 01:28:14;;;;;;;16.15;14.38;;;11.40;99.90;;;;;;4935886;29;20115;-76
2022/05/08 01:30:44;;;;;;;15.15;13.25;;;11.30;99.90;;;;;;4936127;29;20059;-76
2022/05/08 01:33:10;;;;;;;13.88;12.60;;;11.30;99.90;;;;;;4938395;29;20034;-77
2022/05/08 01:35:36;;;;;;;14.15;12.52;;;11.30;99.90;;;;;;4935821;29;20047;-75
2022/05/08 01:38:06;;;;;;;15.85;12.63;;;11.20;99.90;;;;;;4940707;29;20042;-77
2022/05/08 01:40:32;;;;;;;14.30;13.05;;;11.20;99.90;;;;;;4937884;29;20115;-76
2022/05/08 01:42:58;;;;;;;15.50;13.65;;;11.10;99.90;;;;;;4938267;29;20106;-77
2022/05/08 01:45:24;;;;;;;14.95;13.55;;;11.10;99.90;;;;;;4933986;29;20023;-78
2022/05/08 01:50:35;;;;;;;17.17;12.93;;;11.10;99.90;;;;;;4937091;29;20059;-76
2022/05/08 01:53:01;;;;;;;14.13;12.80;;;11.20;99.90;;;;;;4936742;29;20083;-77
2022/05/08 01:55:27;;;;;;;15.02;12.90;;;11.30;99.90;;;;;;4937519;29;20032;-76
2022/05/08 01:57:53;;;;;;;15.25;13.68;;;11.20;99.90;;;;;;4939270;29;20027;-78
2022/05/08 02:00:20;;;;;;;15.98;14.38;;;11.10;99.90;;;;;;4936613;29;20027;-77
2022/05/08 02:02:48;;;;;;;15.20;13.80;;;11.10;99.90;;;;;;4944124;28;20029;-77
2022/05/08 02:05:18;;;;;;;16.33;14.25;;;11.10;99.90;;;;;;4937865;29;20111;-77
2022/05/08 02:07:45;;;;;;;15.57;14.27;;;11.00;99.90;;;;;;4935332;29;20112;-77
2022/05/08 02:10:11;;;;;;;16.95;15.25;;;11.00;99.90;;;;;;4937932;29;20024;-76
2022/05/08 02:12:37;;;;;;;15.63;14.02;;;11.00;99.90;;;;;;4955304;28;20030;-77
2022/05/08 02:15:03;;;;;;;17.35;15.02;;;11.00;99.90;;;;;;4941563;29;20427;-78
2022/05/08 02:17:29;;;;;;;15.95;14.25;;;10.90;99.90;;;;;;4941613;29;20041;-75
2022/05/08 02:19:54;;;;;;;16.35;14.43;;;11.10;99.90;;;;;;4940412;29;20095;-78
2022/05/08 02:22:20;;;;;;;15.40;14.10;;;11.10;99.90;;;;;;4938664;29;20098;-76
2022/05/08 02:24:45;;;;;;;16.80;15.25;;;11.00;99.90;;;;;;4936833;29;20028;-77
2022/05/08 02:27:11;;;;;;;15.63;14.00;;;11.00;99.90;;;;;;4937290;29;20035;-77
2022/05/08 02:29:36;;;;;;;16.00;14.43;;;10.90;99.90;;;;;;4938323;29;20051;-77
2022/05/08 02:32:03;;;;;;;15.55;14.20;;;10.90;99.90;;;;;;4938380;28;20481;-76
2022/05/08 02:34:28;;;;;;;15.40;14.10;;;10.80;99.90;;;;;;4938673;29;20059;-78
2022/05/08 02:36:54;;;;;;;15.30;13.90;;;10.90;99.90;;;;;;4935751;29;20098;-77
2022/05/08 02:39:19;;;;;;;15.88;13.43;;;11.00;99.90;;;;;;4935518;29;20440;-76
2022/05/08 02:41:45;;;;;;;15.02;13.63;;;11.00;99.90;;;;;;4930403;29;20110;-77
2022/05/08 02:44:11;;;;;;;15.80;14.38;;;11.00;99.90;;;;;;4938591;29;20031;-77
2022/05/08 02:46:36;;;;;;;14.98;13.52;;;10.90;99.90;;;;;;4935694;29;20028;-77
2022/05/08 02:49:02;;;;;;;15.25;13.85;;;10.90;99.90;;;;;;4933557;29;20034;-78
2022/05/08 02:51:28;;;;;;;15.93;13.93;;;10.90;99.90;;;;;;4937353;29;20400;-78
2022/05/08 02:53:53;;;;;;;15.05;13.55;;;10.90;99.90;;;;;;4937563;29;20028;-77
2022/05/08 02:59:03;;;;;;;16.05;14.65;;;10.80;99.90;;;;;;4935683;29;20035;-77
2022/05/08 03:01:28;;;;;;;16.95;15.45;;;10.70;99.90;;;;;;4935897;29;20039;-77
2022/05/08 03:03:54;;;;;;;16.55;14.82;;;10.60;99.90;;;;;;4936089;29;20052;-78
2022/05/08 03:06:19;;;;;;;17.75;16.10;;;10.60;99.90;;;;;;4934692;29;20028;-78
2022/05/08 03:08:45;;;;;;;17.38;15.80;;;10.70;99.90;;;;;;4934914;29;20484;-78
2022/05/08 03:11:25;;;;;;;18.33;16.48;;;10.70;99.90;;;;;;4933998;29;20499;-77
2022/05/08 03:13:52;;;;;;;17.90;16.08;;;10.60;99.90;;;;;;4933719;29;20035;-77
2022/05/08 03:16:18;;;;;;;18.25;16.42;;;10.50;99.90;;;;;;4935934;29;20043;-79
2022/05/08 03:18:45;;;;;;;18.08;16.27;;;10.50;99.90;;;;;;4936463;29;20024;-77
2022/05/08 03:21:13;;;;;;;17.95;16.13;;;10.60;99.90;;;;;;4932914;29;20027;-77
2022/05/08 03:23:40;;;;;;;16.95;15.15;;;10.60;99.90;;;;;;4933601;29;20476;-77
2022/05/08 03:26:06;;;;;;;17.85;16.10;;;10.50;99.90;;;;;;4938437;29;20035;-75
2022/05/08 03:28:32;;;;;;;18.17;16.52;;;10.50;99.90;;;;;;4932743;29;20031;-77
2022/05/08 03:30:59;;;;;;;19.40;17.27;;;10.50;99.90;;;;;;4939706;29;20425;-79
2022/05/08 03:33:28;;;;;;;18.23;16.45;;;10.40;99.90;;;;;;4931523;29;20491;-78
2022/05/08 03:35:54;;;;;;;20.20;18.05;;;10.40;99.90;;;;;;4937287;29;20083;-78
2022/05/08 03:38:20;;;;;;;17.42;15.63;;;10.50;99.90;;;;;;4937024;29;20032;-75
2022/05/08 03:40:46;;;;;;;17.38;15.88;;;10.40;99.90;;;;;;4935869;29;20083;-76
2022/05/08 03:43:11;;;;;;;18.35;16.55;;;10.40;99.90;;;;;;4936811;29;20032;-78
2022/05/08 03:45:37;;;;;;;18.35;16.55;;;10.40;99.90;;;;;;4935216;29;20200;-78
2022/05/08 03:48:03;;;;;;;16.60;15.10;;;10.40;99.90;;;;;;4933731;29;20062;-77
2022/05/08 03:50:30;;;;;;;20.55;14.85;;;10.50;99.90;;;;;;4934191;29;20034;-79
2022/05/08 03:52:59;;;;;;;17.83;15.95;;;10.60;99.90;;;;;;4934544;29;20094;-79
2022/05/08 03:55:25;;;;;;;17.88;16.35;;;10.50;99.90;;;;;;4934532;29;20106;-77
2022/05/08 03:57:51;;;;;;;21.08;17.65;;;10.50;99.90;;;;;;4934065;29;20396;-77
2022/05/08 04:00:17;;;;;;;19.42;17.67;;;10.40;99.90;;;;;;4945767;29;20031;-77
2022/05/08 04:02:44;;;;;;;18.77;16.80;;;10.40;99.90;;;;;;4934765;29;20031;-78
2022/05/08 04:05:10;;;;;;;19.55;17.48;;;10.40;99.90;;;;;;4925583;29;20500;-77
2022/05/08 04:07:37;;;;;;;18.92;17.00;;;10.50;99.90;;;;;;4929049;29;20043;-78
2022/05/08 04:10:03;;;;;;;19.70;17.83;;;10.60;99.90;;;;;;4933072;29;20026;-77
2022/05/08 04:12:29;;;;;;;18.45;16.65;;;10.70;99.90;;;;;;4935647;29;20370;-77
2022/05/08 04:14:55;;;;;;;18.52;16.55;;;10.60;99.90;;;;;;4934427;29;20050;-77
2022/05/08 04:17:20;;;;;;;19.25;17.65;;;10.50;99.90;;;;;;4931898;29;20038;-75
2022/05/08 04:19:49;;;;;;;18.77;17.02;;;10.50;99.90;;;;;;4934163;29;20096;-77
2022/05/08 04:24:58;;;;;;;17.55;16.05;;;10.50;99.90;;;;;;4959481;28;20064;-75
2022/05/08 04:27:24;;;;;;;20.95;17.30;;;10.50;99.90;;;;;;4958452;28;20027;-74
2022/05/08 04:29:50;;;;;;;17.88;16.17;;;10.60;99.90;;;;;;4955201;28;20036;-77
2022/05/08 04:32:16;;;;;;;22.17;17.45;;;10.60;99.90;;;;;;4943782;29;20126;-76
2022/05/08 04:34:41;;;;;;;18.42;16.77;;;10.60;99.90;;;;;;4928591;29;20111;-76
2022/05/08 04:37:09;;;;;;;18.65;16.95;;;10.60;99.90;;;;;;4931589;29;20036;-76
2022/05/08 04:39:35;;;;;;;18.75;15.85;;;10.70;99.90;;;;;;4931066;29;20075;-75
2022/05/08 04:42:01;;;;;;;18.27;16.52;;;10.70;99.90;;;;;;4938565;29;20028;-76
2022/05/08 04:44:27;;;;;;;18.33;16.67;;;10.90;99.90;;;;;;4945232;29;20051;-76
2022/05/08 04:46:52;;;;;;;19.10;17.08;;;11.00;99.90;;;;;;4936798;29;20031;-77
2022/05/08 04:49:18;;;;;;;19.13;17.40;;;11.10;99.90;;;;;;4938433;29;20042;-77
2022/05/08 04:51:43;;;;;;;19.15;17.38;;;11.10;99.90;;;;;;4934581;29;20106;-77
2022/05/08 04:54:09;;;;;;;18.13;16.45;;;11.10;99.90;;;;;;4933927;29;20119;-77
2022/05/08 04:56:34;;;;;;;20.27;18.25;;;11.00;99.90;;;;;;4941276;29;20034;-78
2022/05/08 04:59:00;;;;;;;17.60;16.02;;;11.00;99.90;;;;;;4935082;29;20062;-77
2022/05/08 05:01:25;;;;;;;19.50;17.45;;;11.10;99.90;;;;;;4939144;28;20079;-75
2022/05/08 05:03:51;;;;;;;18.35;16.65;;;11.10;99.90;;;;;;4934413;29;20047;-77
2022/05/08 05:06:17;;;;;;;18.92;17.25;;;11.20;99.90;;;;;;4932862;29;20047;-77
2022/05/08 05:08:43;;;;;;;18.63;16.83;;;11.30;99.90;;;;;;4932267;29;20035;-75
2022/05/08 05:11:10;;;;;;;17.75;16.15;;;11.20;99.90;;;;;;4936120;29;20028;-76
2022/05/08 05:13:36;;;;;;;18.90;16.95;;;11.20;99.90;;;;;;4937461;29;20458;-77
2022/05/08 05:16:02;;;;;;;18.10;16.42;;;11.30;99.90;;;;;;4934516;29;20040;-77
2022/05/08 05:18:28;;;;;;;17.88;16.42;;;11.30;99.90;;;;;;4933454;29;20027;-76
2022/05/08 05:20:54;;;;;;;20.58;18.63;;;11.40;99.90;;;;;;4933824;29;20035;-77
2022/05/08 05:23:19;;;;;;;18.20;16.50;;;11.50;99.90;;;;;;4932805;29;20400;-77
2022/05/08 05:25:45;;;;;;;17.77;16.13;;;11.30;99.90;;;;;;4935319;29;20036;-77
2022/05/08 05:28:10;;;;;;;18.73;17.08;;;11.30;99.90;;;;;;4932479;29;20027;-78
2022/05/08 05:30:36;;;;;;;17.52;16.02;;;11.30;99.90;;;;;;4930927;29;20101;-77
2022/05/08 05:33:02;;;;;;;21.20;16.75;;;11.50;99.90;;;;;;4932814;29;20074;-77
2022/05/08 05:35:27;;;;;;;18.50;16.33;;;11.60;99.90;;;;;;4942603;29;20028;-80
2022/05/08 05:37:53;;;;;;;16.73;15.23;;;11.50;99.90;;;;;;4933268;29;20428;-76
2022/05/08 05:40:20;;;;;;;17.88;16.38;;;11.40;99.90;;;;;;4933959;29;20024;-77
2022/05/08 05:42:46;;;;;;;19.02;15.82;;;11.40;99.90;;;;;;4932477;29;20082;-77
2022/05/08 05:45:12;;;;;;;22.40;16.42;;;11.30;99.90;;;;;;4931192;29;20040;-76
2022/05/08 05:47:50;;;;;;;18.15;16.38;;;11.30;99.90;;;;;;4932574;29;20042;-77
2022/05/08 05:50:22;;;;;;;17.02;15.52;;;11.40;99.90;;;;;;4931369;29;20051;-77
2022/05/08 05:52:48;;;;;;;17.58;15.98;;;11.50;99.90;;;;;;4931081;29;20378;-77
2022/05/08 05:55:14;;;;;;;20.10;17.15;;;11.40;99.90;;;;;;4937935;29;20042;-77
2022/05/08 05:57:40;;;;;;;18.00;16.10;;;11.90;99.90;;;;;;4933185;29;20036;-76
2022/05/08 06:00:11;;;;;;;23.00;17.10;;;12.00;99.90;;;;;;4933530;29;20413;-78
2022/05/08 06:02:37;;;;;;;;;;;12.10;99.90;;;;;;4933511;29;20024;-76
2022/05/08 06:05:06;;;;;;;17.30;15.65;;;12.10;99.90;;;;;;4938185;29;19911;-77
2022/05/08 06:07:32;;;;;;;18.83;16.98;;;12.10;99.90;;;;;;4935854;29;20083;-77
2022/05/08 06:09:58;;;;;;;17.35;15.52;;;12.10;99.90;;;;;;4943662;29;20020;-76
2022/05/08 06:12:24;;;;;;;16.73;15.13;;;12.20;99.90;;;;;;4939740;29;20484;-79
2022/05/08 06:14:49;;;;;;;18.45;16.55;;;12.50;99.90;;;;;;4936383;29;20772;-79
2022/05/08 06:17:15;;;;;;;18.23;16.60;;;12.40;99.90;;;;;;4934457;29;20036;-78
2022/05/08 06:19:40;;;;;;;17.98;16.25;;;12.10;99.90;;;;;;4933622;29;20123;-80
2022/05/08 06:22:06;;;;;;;17.60;15.95;;;12.10;99.90;;;;;;4937655;29;20054;-79
2022/05/08 06:24:31;;;;;;;19.48;15.23;;;12.10;99.90;;;;;;4940942;28;20131;-77
2022/05/08 06:26:57;;;;;;;16.63;15.23;;;12.00;99.90;;;;;;4935945;29;20531;-79
2022/05/08 06:29:22;;;;;;;17.55;15.75;;;12.00;99.90;;;;;;4936862;29;20074;-80
2022/05/08 06:31:51;;;;;;;17.10;15.43;;;12.20;99.90;;;;;;4940613;29;20489;-79
2022/05/08 06:34:18;;;;;;;17.88;16.17;;;12.30;99.90;;;;;;4938713;29;20050;-79
2022/05/08 06:36:44;;;;;;;17.13;15.63;;;12.40;99.90;;;;;;4936806;29;20496;-79
2022/05/08 06:39:09;;;;;;;18.05;16.38;;;12.50;99.90;;;;;;4935050;29;20024;-80
2022/05/08 06:41:36;;;;;;;17.45;15.95;;;12.60;99.90;;;;;;4936292;29;20031;-79
2022/05/08 06:44:02;;;;;;;17.25;15.77;;;12.80;99.90;;;;;;4939423;29;20389;-79
2022/05/08 06:46:31;;;;;;;17.75;15.93;;;12.90;99.90;;;;;;4937239;29;20038;-78
2022/05/08 06:48:57;;;;;;;17.90;16.30;;;13.00;99.90;;;;;;4938453;29;20071;-79
2022/05/08 06:51:22;;;;;;;16.88;15.38;;;13.20;99.90;;;;;;4934981;29;20036;-78
2022/05/08 06:53:48;;;;;;;17.77;16.02;;;13.40;99.90;;;;;;4939262;29;20059;-78
2022/05/08 06:56:15;;;;;;;18.52;16.90;;;13.90;99.90;;;;;;4936401;29;20036;-79
2022/05/08 07:01:35;;;;;;;17.45;15.73;;;14.00;99.90;;;;;;4936154;29;20062;-78
2022/05/08 07:04:03;;;;;;;16.27;14.80;;;14.20;99.90;;;;;;4934552;29;20044;-79
2022/05/08 07:06:29;;;;;;;15.88;14.43;;;14.60;99.90;;;;;;4945471;29;20500;-79
2022/05/08 07:08:55;;;;;;;16.33;14.57;;;14.50;99.90;;;;;;4950783;29;20033;-80
2022/05/08 07:11:21;;;;;;;15.30;14.00;;;14.50;99.90;;;;;;4944732;29;20492;-79
2022/05/08 07:13:46;;;;;;;16.35;14.85;;;14.50;99.90;;;;;;4943862;29;20046;-79
2022/05/08 07:16:12;;;;;;;15.68;14.38;;;14.30;99.90;;;;;;4945200;29;20047;-79
2022/05/08 07:18:39;;;;;;;16.80;15.13;;;14.20;99.90;;;;;;4944645;29;20035;-79
2022/05/08 07:21:05;;;;;;;16.00;14.50;;;14.20;99.90;;;;;;4942199;29;20028;-77
2022/05/08 07:23:34;;;;;;;16.33;14.73;;;14.30;99.90;;;;;;4946643;29;20024;-78
2022/05/08 07:26:00;;;;;;;15.60;14.20;;;14.30;99.90;;;;;;4939626;29;20020;-80
2022/05/08 07:28:25;;;;;;;20.88;15.60;;;14.50;99.90;;;;;;4941108;29;20115;-78
2022/05/08 07:30:51;;;;;;;15.55;14.13;;;15.00;99.90;;;;;;4940017;29;20028;-79
2022/05/08 07:33:16;;;;;;;15.35;13.85;;;15.50;99.90;;;;;;4938138;29;20028;-79
2022/05/08 07:38:28;;;;;;;16.73;14.93;;;15.10;99.90;;;;;;4936669;29;20155;-78
2022/05/08 07:40:54;;;;;;;15.68;14.07;;;15.40;99.90;;;;;;4939747;29;20031;-80
2022/05/08 07:43:20;;;;;;;14.57;13.18;;;15.70;99.90;;;;;;4940540;29;20103;-78
2022/05/08 07:45:46;;;;;;;13.90;12.70;;;15.70;99.90;;;;;;4946823;29;20027;-78
2022/05/08 07:48:12;;;;;;;13.40;12.27;;;16.10;99.90;;;;;;4940930;28;20067;-79
2022/05/08 07:50:37;;;;;;;14.15;13.02;;;16.30;99.90;;;;;;4938194;29;20023;-80
2022/05/08 07:53:03;;;;;;;15.27;13.82;;;16.40;99.90;;;;;;4939011;29;20047;-79
2022/05/08 07:55:29;;;;;;;14.70;13.32;;;16.40;99.90;;;;;;4934894;29;20036;-81
2022/05/08 07:57:54;;;;;;;14.25;12.88;;;15.70;99.90;;;;;;4940192;29;20034;-80
2022/05/08 08:00:20;;;;;;;13.85;12.68;;;15.70;99.90;;;;;;4936429;29;20122;-78
2022/05/08 08:02:45;;;;;;;13.38;12.32;;;15.60;99.90;;;;;;4935721;29;20078;-80
2022/05/08 08:05:11;;;;;;;13.90;12.77;;;15.90;99.90;;;;;;4939934;28;20420;-79
2022/05/08 08:07:37;;;;;;;14.40;13.10;;;15.80;99.90;;;;;;4938901;29;20059;-79
2022/05/08 08:10:04;;;;;;;13.93;12.70;;;15.70;99.90;;;;;;4942301;29;20023;-78
2022/05/08 08:12:30;;;;;;;13.38;12.10;;;15.60;99.90;;;;;;4940836;29;20106;-81
2022/05/08 08:14:56;;;;;;;13.85;12.45;;;15.50;99.90;;;;;;4944797;29;20083;-80
2022/05/08 08:17:22;;;;;;;12.90;11.90;;;15.70;99.90;;;;;;4941272;29;20040;-81
2022/05/08 08:19:48;;;;;;;12.88;11.80;;;15.70;99.90;;;;;;4944668;29;20028;-81
2022/05/08 08:22:14;;;;;;;12.85;11.75;;;16.00;99.90;;;;;;4939525;29;20039;-79
2022/05/08 08:24:40;;;;;;;12.90;11.70;;;16.10;99.90;;;;;;4937981;29;20031;-79
2022/05/08 08:27:07;;;;;;;12.88;11.65;;;16.20;99.90;;;;;;4935804;29;20106;-76
2022/05/08 08:29:32;;;;;;;13.63;12.30;;;16.60;99.90;;;;;;4931966;29;20373;-74
2022/05/08 08:31:58;;;;;;;12.32;11.10;;;16.90;99.90;;;;;;4932961;29;20031;-76
2022/05/08 08:34:24;;;;;;;12.77;11.77;;;17.00;99.90;;;;;;4935042;29;20047;-76
2022/05/08 08:36:49;;;;;;;13.00;11.88;;;17.00;99.90;;;;;;4936464;29;20055;-76
2022/05/08 08:39:15;;;;;;;12.35;11.18;;;17.30;99.90;;;;;;4942435;29;20043;-76
2022/05/08 08:41:48;;;;;;;13.35;12.25;;;17.50;99.90;;;;;;4936031;29;20068;-77
2022/05/08 08:49:50;;;;;;;11.57;10.57;;;18.60;99.90;;;;;;4937454;29;20528;-77
2022/05/08 08:52:17;;;;;;;12.25;11.23;;;18.90;99.90;;;;;;4934190;29;20027;-77
2022/05/08 08:54:43;;;;;;;11.35;10.35;;;19.50;99.90;;;;;;4935440;29;20333;-76
2022/05/08 08:57:09;;;;;;;10.15;9.25;;;19.80;99.90;;;;;;4934436;29;20467;-77
2022/05/08 08:59:35;;;;;;;9.73;8.93;;;19.60;99.90;;;;;;4936225;29;20099;-78
2022/05/08 09:02:00;;;;;;;9.63;8.70;;;19.20;99.90;;;;;;4937327;29;20440;-77
2022/05/08 09:04:26;;;;;;;10.00;8.35;;;20.00;99.90;;;;;;4934752;29;20119;-78
2022/05/08 09:06:52;;;;;;;8.23;7.50;;;20.20;99.90;;;;;;4934504;29;20051;-77
2022/05/08 09:09:28;;;;;;;9.60;8.35;;;19.50;99.90;;;;;;4935178;29;20066;-77
2022/05/08 09:11:56;;;;;;;10.02;8.05;;;19.40;99.90;;;;;;4930076;29;20058;-76
2022/05/08 09:14:30;;;;;;;8.88;8.18;;;19.80;99.90;;;;;;4930919;29;20114;-78
2022/05/08 09:16:56;;;;;;;9.43;8.63;;;20.00;99.90;;;;;;4932312;29;20039;-77
2022/05/08 09:19:37;;;;;;;8.50;7.80;;;20.10;99.90;;;;;;4932158;29;20032;-78
2022/05/08 09:22:07;;;;;;;9.00;8.23;;;20.00;99.90;;;;;;4931172;29;20119;-77
2022/05/08 09:24:35;;;;;;;8.45;7.65;;;20.40;99.90;;;;;;4946511;28;20034;-77
2022/05/08 09:27:15;;;;;;;9.25;8.38;;;20.50;99.90;;;;;;4939115;29;20066;-78
2022/05/08 09:29:42;;;;;;;9.07;8.18;;;20.60;99.90;;;;;;4934017;29;20027;-78
2022/05/08 09:32:08;;;;;;;7.97;7.18;;;20.50;99.90;;;;;;4935631;29;20019;-77
2022/05/08 09:34:57;;;;;;;7.93;7.22;;;20.00;99.90;;;;;;4943203;29;20043;-77
2022/05/08 09:37:23;;;;;;;8.30;7.60;;;20.00;99.90;;;;;;4936174;29;20034;-78
2022/05/08 09:39:49;;;;;;;8.25;7.55;;;19.80;99.90;;;;;;4944113;29;20034;-77
2022/05/08 09:42:37;;;;;;;8.93;8.02;;;20.40;99.90;;;;;;4938854;29;20512;-78
2022/05/08 09:45:05;;;;;;;8.05;7.35;;;19.90;99.90;;;;;;4948771;29;20071;-78
2022/05/08 09:47:40;;;;;;;8.95;8.10;;;20.40;99.90;;;;;;4935652;29;20051;-77
2022/05/08 09:50:07;;;;;;;8.55;7.75;;;20.70;99.90;;;;;;4933977;29;20038;-76
2022/05/08 09:52:36;;;;;;;8.45;7.75;;;20.80;99.90;;;;;;4952226;29;20023;-76
2022/05/08 09:55:02;;;;;;;8.35;7.60;;;20.40;99.90;;;;;;4960552;29;20035;-75
2022/05/08 09:57:27;;;;;;;8.82;8.02;;;19.80;99.90;;;;;;4960912;28;20087;-75
2022/05/08 09:59:53;;;;;;;8.60;7.88;;;20.10;99.90;;;;;;4960681;28;20020;-77
2022/05/08 10:02:19;;;;;;;9.88;7.90;;;20.30;99.90;;;;;;4960381;28;20019;-76
2022/05/08 10:04:46;;;;;;;8.68;7.97;;;20.60;99.90;;;;;;4950904;28;20027;-76
2022/05/08 10:07:13;;;;;;;8.30;7.55;;;20.60;99.90;;;;;;4952404;29;20641;-75
2022/05/08 10:15:19;;;;;;;8.52;7.82;;;21.00;99.90;;;;;;4938118;29;20519;-77
2022/05/08 10:17:45;;;;;;;7.85;7.25;;;21.30;99.90;;;;;;4941039;29;20028;-77
2022/05/08 10:20:10;;;;;;;8.70;7.85;;;21.30;99.90;;;;;;4933730;29;20086;-77
2022/05/08 10:22:47;;;;;;;8.95;8.23;;;21.20;99.90;;;;;;4936252;29;20027;-76
2022/05/08 10:25:16;;;;;;;7.88;7.28;;;21.50;99.90;;;;;;4934134;29;20058;-77
2022/05/08 10:28:08;;;;;;;7.88;7.05;;;21.50;99.90;;;;;;4941689;29;20028;-77
2022/05/08 10:30:33;;;;;;;8.23;7.53;;;21.50;99.90;;;;;;4937000;29;20036;-76
2022/05/08 10:33:00;;;;;;;7.18;6.57;;;21.20;99.90;;;;;;4939555;29;20028;-74
2022/05/08 10:35:28;;;;;;;7.85;7.25;;;21.30;99.90;;;;;;4937330;29;20396;-77
2022/05/08 10:38:21;;;;;;;7.30;6.70;;;20.90;99.90;;;;;;4939904;29;20019;-76
2022/05/08 10:40:46;;;;;;;8.32;7.63;;;21.20;99.90;;;;;;4932014;29;20428;-77
2022/05/08 10:43:18;;;;;;;8.77;7.93;;;21.70;99.90;;;;;;4936787;29;20031;-77
2022/05/08 10:45:44;;;;;;;7.88;7.18;;;21.70;99.90;;;;;;4937244;29;20035;-77
2022/05/08 10:48:14;;;;;;;8.15;7.45;;;21.50;99.90;;;;;;4937764;29;20032;-77
2022/05/08 10:50:51;;;;;;;9.02;7.10;;;22.00;99.90;;;;;;4936125;29;20023;-77
2022/05/08 10:53:23;;;;;;;3.75;3.45;;;21.80;99.90;;;;;;4934687;29;20510;-76
2022/05/08 10:55:49;;;;;;;3.95;3.63;;;22.00;96.70;;;;;;4939349;29;20040;-76
2022/05/08 10:58:15;;;;;;;3.53;3.22;;;22.30;95.70;;;;;;4938489;29;20043;-76
2022/05/08 11:00:40;;;;;;;4.28;3.05;;;22.40;94.40;;;;;;4938829;29;20031;-75
2022/05/08 11:03:06;;;;;;;3.80;3.47;;;22.30;94.60;;;;;;4938055;29;20454;-76
2022/05/08 11:05:37;;;;;;;4.93;4.15;;;22.40;93.90;;;;;;4939500;29;20037;-76
2022/05/08 11:08:11;;;;;;;5.38;3.90;;;22.20;93.50;;;;;;4935636;29;20122;-77
2022/05/08 11:10:39;;;;;;;4.25;3.65;;;22.10;93.90;;;;;;4940907;29;20020;-76
2022/05/08 11:13:12;;;;;;;4.55;3.20;;;22.10;93.90;;;;;;4937685;29;20468;-76
2022/05/08 11:15:43;;;;;;;3.60;3.30;;;22.40;93.70;;;;;;4931828;29;20126;-76
2022/05/08 11:18:20;;;;;;;3.80;3.47;;;22.60;93.40;;;;;;4935299;29;20087;-76
2022/05/08 11:21:00;;;;;;;3.78;3.40;;;22.60;92.60;;;;;;4938780;29;20027;-76
2022/05/08 11:23:30;;;;;;;5.72;3.90;;;22.80;92.30;;;;;;4932623;29;20023;-76
2022/05/08 11:25:58;;;;;;;4.40;3.53;;;22.60;92.30;;;;;;4935696;29;20027;-77
2022/05/08 11:28:25;;;;;;;6.35;3.28;;;22.60;92.50;;;;;;4930807;29;20031;-77
2022/05/08 11:30:52;;;;;;;4.10;3.80;;;22.40;92.60;;;;;;4936134;29;20604;-77
2022/05/08 11:36:06;;;;;;;3.83;3.30;;;22.20;92.20;;;;;;4936620;29;20070;-76
2022/05/08 11:38:52;;;;;;;6.25;4.13;;;22.00;92.40;;;;;;4935467;29;20023;-76
2022/05/08 11:41:21;;;;;;;4.57;4.05;;;22.20;92.30;;;;;;4936543;29;20031;-76
2022/05/08 11:43:49;;;;;;;4.97;4.57;;;22.40;92.00;;;;;;4933040;29;20046;-76
2022/05/08 11:46:19;;;;;;;3.92;3.63;;;22.60;92.10;;;;;;4938639;29;20030;-75
2022/05/08 11:48:47;;;;;;;3.95;3.47;;;22.90;91.90;;;;;;4932978;29;20118;-77
2022/05/08 11:51:20;;;;;;;4.20;3.80;;;23.20;91.00;;;;;;4934160;29;20032;-76
2022/05/08 11:53:49;;;;;;;4.38;3.97;;;23.00;90.20;;;;;;4935914;29;20059;-76
2022/05/08 11:56:32;;;;;;;4.65;3.53;;;23.10;90.50;;;;;;4934848;29;20392;-76
2022/05/08 11:58:59;;;;;;;3.67;3.38;;;22.90;90.30;;;;;;4934813;29;20082;-75
2022/05/08 12:01:29;;;;;;;5.65;4.00;;;22.90;90.40;;;;;;4933956;29;20039;-76
2022/05/08 12:03:57;;;;;;;3.58;3.25;;;22.60;90.70;;;;;;4933910;29;20507;-77
2022/05/08 12:06:23;;;;;;;4.40;4.00;;;22.40;90.10;;;;;;4934736;29;20024;-77
2022/05/08 12:08:50;;;;;;;4.80;4.13;;;22.20;91.10;;;;;;4936621;29;20028;-76
2022/05/08 12:11:37;;;;;;;6.75;4.55;;;22.20;91.70;;;;;;4918943;29;20080;-75
2022/05/08 12:14:07;;;;;;;5.85;4.90;;;22.40;91.50;;;;;;4934528;29;20063;-76
2022/05/08 12:16:34;;;;;;;4.60;4.03;;;22.70;91.40;;;;;;4945551;29;20510;-78
2022/05/08 12:19:12;;;;;;;7.05;4.90;;;22.60;91.70;;;;;;4956392;28;20550;-81
2022/05/08 12:21:40;;;;;;;5.10;4.00;;;22.90;91.10;;;;;;4941885;29;20469;-78
2022/05/08 12:24:14;;;;;;;7.00;5.72;;;22.70;91.40;;;;;;4952800;29;20019;-80
2022/05/08 12:26:41;;;;;;;4.82;3.58;;;22.60;91.40;;;;;;4956967;28;20031;-80
2022/05/08 12:29:23;;;;;;;5.03;4.53;;;22.70;91.50;;;;;;4956593;28;20035;-80
2022/05/08 12:31:51;;;;;;;5.63;4.95;;;23.00;91.30;;;;;;4957421;28;20046;-80
2022/05/08 12:34:21;;;;;;;4.22;3.72;;;23.20;90.40;;;;;;4957169;28;20031;-79
2022/05/08 12:36:48;;;;;;;4.75;4.32;;;23.50;90.60;;;;;;4958189;28;20027;-80
2022/05/08 12:39:14;;;;;;;3.25;2.92;;;23.60;89.40;;;;;;4959065;28;20356;-79
2022/05/08 12:41:40;;;;;;;4.88;3.30;;;23.40;89.00;;;;;;4957756;28;20035;-79
2022/05/08 12:44:07;;;;;;;3.08;2.88;;;23.30;89.80;;;;;;4956371;28;20031;-79
2022/05/08 12:46:34;;;;;;;3.70;3.40;;;23.10;89.20;;;;;;4954985;28;20023;-80
2022/05/08 12:49:02;;;;;;;3.45;3.15;;;23.00;89.90;;;;;;4957474;28;20404;-80
2022/05/08 12:51:35;;;;;;;3.47;3.17;;;23.10;90.20;;;;;;4955333;28;20023;-80
2022/05/08 12:54:03;;;;;;;4.30;2.97;;;23.10;90.10;;;;;;4955976;29;20038;-80
2022/05/08 12:56:32;;;;;;;3.63;2.72;;;23.30;88.30;;;;;;4957872;28;20035;-79
2022/05/08 13:01:46;;;;;;;4.50;3.42;;;23.70;87.60;;;;;;4957031;28;20038;-80
2022/05/08 13:04:12;;;;;;;3.22;2.92;;;23.60;88.20;;;;;;4956636;28;20035;-79
2022/05/08 13:06:38;;;;;;;3.00;2.80;;;23.40;87.50;;;;;;4955738;28;20035;-80